Merritt, North Carolina
Current Conditions -  °F | °C
As of 8:56 AM on Saturday 20 Dec 2014 (Local Time) from KNBT Reporting Station
Overcast Overcast  
Wind Chill: 41°   Ceiling: 9000
Heat Index: 46°   Visibility: NA
Dew Point: 36°   Wind: 9mph
Humidity: 68%   Direction: 40°NE
Pressure: 30.27"   Gusts: NA
Location:  35.1°N, 76.71°W
Report Text: KNBT 201356Z AUTO 04008KT OVC090 08/02 A3027 RMK AO2 SLP255 T00780022 PNO $
Loading
Personal Weather Stations






























Interactive Weather Map New forecast layout! Learn more

10-Day Weather Forecast

Advertisements
Track Severe Weather on mobile